Terminal Aerodrome Forecast
Issued by NWS

Home | Current Version | Previous Version | Text Only | Print | Product List | Glossary On
Versions: 1 2 3 4 5 6 7 8 9 10 11 12 13 14 15 16
905
FTUS43 KIND 261720
TAFLAF
TAF
KLAF 261720Z 2618/2718 10006KT P6SM BKN050
     FM270300 00000KT P6SM SCT250
     FM270900 00000KT 4SM BR SCT250
      TEMPO 2709/2712 2SM BR SCT250
     FM271200 00000KT P6SM SCT200
     FM271500 04004KT P6SM SCT035=

USA.gov is the U.S. government's official web portal to all federal, state and local government web resources and services.